sensor_id;sensor_type;location;lat;lon;timestamp;temperature;humidity
5723;DHT22;2886;49.722;8.612;2022-08-01T00:00:39;22.60;87.10
5723;DHT22;2886;49.722;8.612;2022-08-01T00:03:05;22.60;86.80
5723;DHT22;2886;49.722;8.612;2022-08-01T00:05:31;22.80;84.30
5723;DHT22;2886;49.722;8.612;2022-08-01T00:07:57;22.90;83.50
5723;DHT22;2886;49.722;8.612;2022-08-01T00:10:23;23.10;81.90
5723;DHT22;2886;49.722;8.612;2022-08-01T00:12:49;23.20;80.40
5723;DHT22;2886;49.722;8.612;2022-08-01T00:15:16;23.20;79.40
5723;DHT22;2886;49.722;8.612;2022-08-01T00:17:43;23.30;79.30
5723;DHT22;2886;49.722;8.612;2022-08-01T00:20:11;23.20;79.40
5723;DHT22;2886;49.722;8.612;2022-08-01T00:22:38;23.20;79.40
5723;DHT22;2886;49.722;8.612;2022-08-01T00:25:05;23.20;80.10
5723;DHT22;2886;49.722;8.612;2022-08-01T00:27:31;23.10;80.90
5723;DHT22;2886;49.722;8.612;2022-08-01T00:29:57;23.10;83.10
5723;DHT22;2886;49.722;8.612;2022-08-01T00:32:23;22.90;85.50
5723;DHT22;2886;49.722;8.612;2022-08-01T00:34:49;22.70;87.30
5723;DHT22;2886;49.722;8.612;2022-08-01T00:37:15;22.60;88.00
5723;DHT22;2886;49.722;8.612;2022-08-01T00:39:41;22.50;89.40
5723;DHT22;2886;49.722;8.612;2022-08-01T00:42:10;22.50;90.10
5723;DHT22;2886;49.722;8.612;2022-08-01T00:44:37;22.50;90.20
5723;DHT22;2886;49.722;8.612;2022-08-01T00:47:04;22.40;90.40
5723;DHT22;2886;49.722;8.612;2022-08-01T00:49:30;22.40;90.70
5723;DHT22;2886;49.722;8.612;2022-08-01T00:51:56;22.30;90.90
5723;DHT22;2886;49.722;8.612;2022-08-01T00:54:24;22.30;91.10
5723;DHT22;2886;49.722;8.612;2022-08-01T00:56:51;22.30;91.30
5723;DHT22;2886;49.722;8.612;2022-08-01T00:59:21;22.30;91.20
5723;DHT22;2886;49.722;8.612;2022-08-01T01:01:47;22.30;91.00
5723;DHT22;2886;49.722;8.612;2022-08-01T01:04:13;22.40;91.10
5723;DHT22;2886;49.722;8.612;2022-08-01T01:09:42;22.40;90.40
5723;DHT22;2886;49.722;8.612;2022-08-01T01:12:29;22.50;89.10
5723;DHT22;2886;49.722;8.612;2022-08-01T01:18:07;22.70;87.70
5723;DHT22;2886;49.722;8.612;2022-08-01T01:20:37;22.60;87.70
5723;DHT22;2886;49.722;8.612;2022-08-01T01:29:08;22.70;88.00
5723;DHT22;2886;49.722;8.612;2022-08-01T01:31:43;22.60;88.20
5723;DHT22;2886;49.722;8.612;2022-08-01T01:34:13;22.60;88.30
5723;DHT22;2886;49.722;8.612;2022-08-01T01:36:39;22.60;88.20
5723;DHT22;2886;49.722;8.612;2022-08-01T01:39:06;22.70;88.10
5723;DHT22;2886;49.722;8.612;2022-08-01T01:41:33;22.60;88.20
5723;DHT22;2886;49.722;8.612;2022-08-01T01:44:01;22.60;88.50
5723;DHT22;2886;49.722;8.612;2022-08-01T01:46:29;22.60;89.10
5723;DHT22;2886;49.722;8.612;2022-08-01T01:48:56;22.60;88.60
5723;DHT22;2886;49.722;8.612;2022-08-01T01:51:24;22.70;88.30
5723;DHT22;2886;49.722;8.612;2022-08-01T01:53:53;22.70;88.20
5723;DHT22;2886;49.722;8.612;2022-08-01T01:56:20;22.70;89.10
5723;DHT22;2886;49.722;8.612;2022-08-01T01:58:51;22.60;90.30
5723;DHT22;2886;49.722;8.612;2022-08-01T02:01:19;22.50;90.20
5723;DHT22;2886;49.722;8.612;2022-08-01T02:03:46;22.40;90.50
5723;DHT22;2886;49.722;8.612;2022-08-01T02:06:14;22.30;90.80
5723;DHT22;2886;49.722;8.612;2022-08-01T02:08:42;22.30;91.40
5723;DHT22;2886;49.722;8.612;2022-08-01T02:11:09;22.20;91.90
5723;DHT22;2886;49.722;8.612;2022-08-01T02:14:02;22.10;92.30
5723;DHT22;2886;49.722;8.612;2022-08-01T02:16:40;22.00;92.70
5723;DHT22;2886;49.722;8.612;2022-08-01T02:19:07;21.90;93.20
5723;DHT22;2886;49.722;8.612;2022-08-01T02:24:34;21.80;94.60
5723;DHT22;2886;49.722;8.612;2022-08-01T02:27:11;21.70;95.20
5723;DHT22;2886;49.722;8.612;2022-08-01T02:29:42;21.70;95.10
5723;DHT22;2886;49.722;8.612;2022-08-01T02:32:14;21.60;95.50
5723;DHT22;2886;49.722;8.612;2022-08-01T02:34:42;21.60;95.80
5723;DHT22;2886;49.722;8.612;2022-08-01T02:37:11;21.50;96.00
5723;DHT22;2886;49.722;8.612;2022-08-01T02:39:38;21.50;96.70
5723;DHT22;2886;49.722;8.612;2022-08-01T02:42:06;21.50;96.90
5723;DHT22;2886;49.722;8.612;2022-08-01T02:44:36;21.50;97.10
5723;DHT22;2886;49.722;8.612;2022-08-01T02:47:04;21.50;97.20
5723;DHT22;2886;49.722;8.612;2022-08-01T02:49:36;21.50;97.10
5723;DHT22;2886;49.722;8.612;2022-08-01T02:52:06;21.60;96.80
5723;DHT22;2886;49.722;8.612;2022-08-01T02:54:34;21.60;96.70
5723;DHT22;2886;49.722;8.612;2022-08-01T02:57:02;21.60;96.80
5723;DHT22;2886;49.722;8.612;2022-08-01T02:59:30;21.70;96.60
5723;DHT22;2886;49.722;8.612;2022-08-01T03:01:59;21.80;96.60
5723;DHT22;2886;49.722;8.612;2022-08-01T03:04:26;21.80;96.40
5723;DHT22;2886;49.722;8.612;2022-08-01T03:09:25;21.80;95.90
5723;DHT22;2886;49.722;8.612;2022-08-01T03:11:51;21.80;95.70
5723;DHT22;2886;49.722;8.612;2022-08-01T03:14:18;21.90;95.40
5723;DHT22;2886;49.722;8.612;2022-08-01T03:16:46;21.90;95.10
5723;DHT22;2886;49.722;8.612;2022-08-01T03:19:13;21.90;95.10
5723;DHT22;2886;49.722;8.612;2022-08-01T03:21:42;21.90;95.10
5723;DHT22;2886;49.722;8.612;2022-08-01T03:24:10;21.90;95.20
5723;DHT22;2886;49.722;8.612;2022-08-01T03:26:38;21.90;95.20
5723;DHT22;2886;49.722;8.612;2022-08-01T03:29:06;21.90;95.40
5723;DHT22;2886;49.722;8.612;2022-08-01T03:31:36;21.90;95.50
5723;DHT22;2886;49.722;8.612;2022-08-01T03:34:03;21.80;95.80
5723;DHT22;2886;49.722;8.612;2022-08-01T03:36:31;21.80;96.00
5723;DHT22;2886;49.722;8.612;2022-08-01T03:39:02;21.80;96.30
5723;DHT22;2886;49.722;8.612;2022-08-01T03:41:38;21.80;96.50
5723;DHT22;2886;49.722;8.612;2022-08-01T03:44:16;21.70;96.60
5723;DHT22;2886;49.722;8.612;2022-08-01T03:46:58;21.70;96.70
5723;DHT22;2886;49.722;8.612;2022-08-01T03:49:32;21.70;96.70
5723;DHT22;2886;49.722;8.612;2022-08-01T03:52:02;21.70;96.50
5723;DHT22;2886;49.722;8.612;2022-08-01T03:54:33;21.70;96.90
5723;DHT22;2886;49.722;8.612;2022-08-01T03:57:00;21.70;96.90
5723;DHT22;2886;49.722;8.612;2022-08-01T03:59:27;21.70;97.00
5723;DHT22;2886;49.722;8.612;2022-08-01T04:01:53;21.70;97.00
5723;DHT22;2886;49.722;8.612;2022-08-01T04:04:20;21.80;97.00
5723;DHT22;2886;49.722;8.612;2022-08-01T04:06:46;21.80;97.10
5723;DHT22;2886;49.722;8.612;2022-08-01T04:09:16;21.80;97.10
5723;DHT22;2886;49.722;8.612;2022-08-01T04:11:41;21.80;96.90
5723;DHT22;2886;49.722;8.612;2022-08-01T04:14:08;21.80;96.50
5723;DHT22;2886;49.722;8.612;2022-08-01T04:16:33;21.80;96.60
5723;DHT22;2886;49.722;8.612;2022-08-01T04:19:01;21.80;96.70
5723;DHT22;2886;49.722;8.612;2022-08-01T04:21:29;21.90;96.40
5723;DHT22;2886;49.722;8.612;2022-08-01T04:24:02;21.90;96.20
5723;DHT22;2886;49.722;8.612;2022-08-01T04:26:32;22.00;96.10
5723;DHT22;2886;49.722;8.612;2022-08-01T04:29:02;22.00;96.00
5723;DHT22;2886;49.722;8.612;2022-08-01T04:31:32;22.00;96.30
5723;DHT22;2886;49.722;8.612;2022-08-01T04:33:59;22.00;96.00
5723;DHT22;2886;49.722;8.612;2022-08-01T04:36:28;22.00;96.10
5723;DHT22;2886;49.722;8.612;2022-08-01T04:38:57;22.10;95.60
5723;DHT22;2886;49.722;8.612;2022-08-01T04:41:25;22.10;95.80
5723;DHT22;2886;49.722;8.612;2022-08-01T04:43:51;22.10;95.90
5723;DHT22;2886;49.722;8.612;2022-08-01T04:46:19;22.10;95.90
5723;DHT22;2886;49.722;8.612;2022-08-01T04:48:45;22.10;95.60
5723;DHT22;2886;49.722;8.612;2022-08-01T04:51:13;22.10;95.80
5723;DHT22;2886;49.722;8.612;2022-08-01T04:53:40;22.10;95.70
5723;DHT22;2886;49.722;8.612;2022-08-01T04:56:06;22.00;96.00
5723;DHT22;2886;49.722;8.612;2022-08-01T04:58:32;22.00;96.30
5723;DHT22;2886;49.722;8.612;2022-08-01T05:00:58;22.00;96.30
5723;DHT22;2886;49.722;8.612;2022-08-01T05:03:24;21.90;96.50
5723;DHT22;2886;49.722;8.612;2022-08-01T05:05:49;22.00;96.50
5723;DHT22;2886;49.722;8.612;2022-08-01T05:08:15;22.10;96.60
5723;DHT22;2886;49.722;8.612;2022-08-01T05:10:41;22.10;96.70
5723;DHT22;2886;49.722;8.612;2022-08-01T05:13:09;22.10;96.20
5723;DHT22;2886;49.722;8.612;2022-08-01T05:15:35;22.20;96.20
5723;DHT22;2886;49.722;8.612;2022-08-01T05:18:04;22.20;95.80
5723;DHT22;2886;49.722;8.612;2022-08-01T05:20:29;22.20;95.70
5723;DHT22;2886;49.722;8.612;2022-08-01T05:22:55;22.20;95.90
5723;DHT22;2886;49.722;8.612;2022-08-01T05:25:22;22.20;96.00
5723;DHT22;2886;49.722;8.612;2022-08-01T05:27:49;22.10;96.50
5723;DHT22;2886;49.722;8.612;2022-08-01T05:30:15;22.10;97.10
5723;DHT22;2886;49.722;8.612;2022-08-01T05:32:41;22.20;96.90
5723;DHT22;2886;49.722;8.612;2022-08-01T05:35:08;22.30;96.30
5723;DHT22;2886;49.722;8.612;2022-08-01T05:37:34;22.50;95.60
5723;DHT22;2886;49.722;8.612;2022-08-01T05:39:59;22.60;94.10
5723;DHT22;2886;49.722;8.612;2022-08-01T05:42:25;22.70;93.80
5723;DHT22;2886;49.722;8.612;2022-08-01T05:44:51;22.80;93.60
5723;DHT22;2886;49.722;8.612;2022-08-01T05:47:17;22.70;93.80
5723;DHT22;2886;49.722;8.612;2022-08-01T05:49:45;22.60;94.10
5723;DHT22;2886;49.722;8.612;2022-08-01T05:52:11;22.70;94.20
5723;DHT22;2886;49.722;8.612;2022-08-01T05:54:36;22.70;94.30
5723;DHT22;2886;49.722;8.612;2022-08-01T05:57:02;22.80;93.70
5723;DHT22;2886;49.722;8.612;2022-08-01T05:59:29;23.00;92.90
5723;DHT22;2886;49.722;8.612;2022-08-01T06:01:54;22.90;93.00
5723;DHT22;2886;49.722;8.612;2022-08-01T06:04:20;22.90;93.40
5723;DHT22;2886;49.722;8.612;2022-08-01T06:06:46;22.90;93.40
5723;DHT22;2886;49.722;8.612;2022-08-01T06:09:12;22.90;93.50
5723;DHT22;2886;49.722;8.612;2022-08-01T06:11:38;22.90;93.60
5723;DHT22;2886;49.722;8.612;2022-08-01T06:14:03;23.20;92.50
5723;DHT22;2886;49.722;8.612;2022-08-01T06:16:29;23.50;90.90
5723;DHT22;2886;49.722;8.612;2022-08-01T06:18:55;23.90;89.90
5723;DHT22;2886;49.722;8.612;2022-08-01T06:21:20;24.30;83.70
5723;DHT22;2886;49.722;8.612;2022-08-01T06:23:46;24.10;84.20
5723;DHT22;2886;49.722;8.612;2022-08-01T06:26:12;24.00;87.30
5723;DHT22;2886;49.722;8.612;2022-08-01T06:28:38;24.40;83.60
5723;DHT22;2886;49.722;8.612;2022-08-01T06:31:04;24.80;78.80
5723;DHT22;2886;49.722;8.612;2022-08-01T06:33:30;25.30;72.30
5723;DHT22;2886;49.722;8.612;2022-08-01T06:35:55;25.80;65.60
5723;DHT22;2886;49.722;8.612;2022-08-01T06:38:22;26.10;63.40
5723;DHT22;2886;49.722;8.612;2022-08-01T06:40:47;26.60;58.10
5723;DHT22;2886;49.722;8.612;2022-08-01T06:43:13;26.10;62.40
5723;DHT22;2886;49.722;8.612;2022-08-01T06:45:40;26.20;60.60
5723;DHT22;2886;49.722;8.612;2022-08-01T06:48:05;26.50;59.00
5723;DHT22;2886;49.722;8.612;2022-08-01T06:50:32;26.60;57.20
5723;DHT22;2886;49.722;8.612;2022-08-01T06:52:58;26.00;59.90
5723;DHT22;2886;49.722;8.612;2022-08-01T06:55:23;25.40;64.50
5723;DHT22;2886;49.722;8.612;2022-08-01T06:57:52;25.50;63.60
5723;DHT22;2886;49.722;8.612;2022-08-01T07:00:20;25.00;68.80
5723;DHT22;2886;49.722;8.612;2022-08-01T07:02:52;24.50;77.00
5723;DHT22;2886;49.722;8.612;2022-08-01T07:05:18;24.70;75.60
5723;DHT22;2886;49.722;8.612;2022-08-01T07:07:44;25.10;69.40
5723;DHT22;2886;49.722;8.612;2022-08-01T07:10:11;24.90;71.70
5723;DHT22;2886;49.722;8.612;2022-08-01T07:12:37;24.90;73.70
5723;DHT22;2886;49.722;8.612;2022-08-01T07:15:08;25.10;69.90
5723;DHT22;2886;49.722;8.612;2022-08-01T07:17:41;25.10;69.30
5723;DHT22;2886;49.722;8.612;2022-08-01T07:20:10;25.10;67.60
5723;DHT22;2886;49.722;8.612;2022-08-01T07:22:36;25.20;66.90
5723;DHT22;2886;49.722;8.612;2022-08-01T07:25:03;25.10;70.20
5723;DHT22;2886;49.722;8.612;2022-08-01T07:27:30;24.90;71.80
5723;DHT22;2886;49.722;8.612;2022-08-01T07:29:55;24.90;72.20
5723;DHT22;2886;49.722;8.612;2022-08-01T07:32:21;24.90;72.10
5723;DHT22;2886;49.722;8.612;2022-08-01T07:34:47;24.90;71.30
5723;DHT22;2886;49.722;8.612;2022-08-01T07:37:12;25.10;69.10
5723;DHT22;2886;49.722;8.612;2022-08-01T07:39:38;25.30;68.00
5723;DHT22;2886;49.722;8.612;2022-08-01T07:42:04;25.40;66.20
5723;DHT22;2886;49.722;8.612;2022-08-01T07:44:29;25.50;65.80
5723;DHT22;2886;49.722;8.612;2022-08-01T07:46:55;25.60;65.20
5723;DHT22;2886;49.722;8.612;2022-08-01T07:49:21;25.80;62.50
5723;DHT22;2886;49.722;8.612;2022-08-01T07:51:47;26.00;60.50
5723;DHT22;2886;49.722;8.612;2022-08-01T07:54:13;26.10;59.00
5723;DHT22;2886;49.722;8.612;2022-08-01T07:56:39;25.90;60.20
5723;DHT22;2886;49.722;8.612;2022-08-01T07:59:04;25.90;60.40
5723;DHT22;2886;49.722;8.612;2022-08-01T08:01:30;26.10;60.10
5723;DHT22;2886;49.722;8.612;2022-08-01T08:03:56;26.10;59.70
5723;DHT22;2886;49.722;8.612;2022-08-01T08:06:21;26.30;57.40
5723;DHT22;2886;49.722;8.612;2022-08-01T08:08:47;26.40;56.70
5723;DHT22;2886;49.722;8.612;2022-08-01T08:11:13;26.40;55.90
5723;DHT22;2886;49.722;8.612;2022-08-01T08:13:39;26.50;56.20
5723;DHT22;2886;49.722;8.612;2022-08-01T08:16:05;26.30;57.90
5723;DHT22;2886;49.722;8.612;2022-08-01T08:18:30;26.80;55.60
5723;DHT22;2886;49.722;8.612;2022-08-01T08:20:56;27.00;52.70
5723;DHT22;2886;49.722;8.612;2022-08-01T08:23:21;26.90;52.50
5723;DHT22;2886;49.722;8.612;2022-08-01T08:26:06;26.50;53.70
5723;DHT22;2886;49.722;8.612;2022-08-01T08:28:31;26.60;53.80
5723;DHT22;2886;49.722;8.612;2022-08-01T08:30:57;26.70;54.30
5723;DHT22;2886;49.722;8.612;2022-08-01T08:33:23;26.90;53.70
5723;DHT22;2886;49.722;8.612;2022-08-01T08:35:49;27.10;51.80
5723;DHT22;2886;49.722;8.612;2022-08-01T08:38:14;26.90;52.50
5723;DHT22;2886;49.722;8.612;2022-08-01T08:40:40;26.80;53.20
5723;DHT22;2886;49.722;8.612;2022-08-01T08:43:06;26.90;52.80
5723;DHT22;2886;49.722;8.612;2022-08-01T08:45:32;27.00;52.40
5723;DHT22;2886;49.722;8.612;2022-08-01T08:47:59;27.30;51.60
5723;DHT22;2886;49.722;8.612;2022-08-01T08:50:25;27.70;50.40
5723;DHT22;2886;49.722;8.612;2022-08-01T08:52:53;28.10;48.80
5723;DHT22;2886;49.722;8.612;2022-08-01T08:55:20;28.40;48.10
5723;DHT22;2886;49.722;8.612;2022-08-01T08:57:47;28.60;47.90
5723;DHT22;2886;49.722;8.612;2022-08-01T09:00:14;29.10;46.00
5723;DHT22;2886;49.722;8.612;2022-08-01T09:02:44;29.60;44.80
5723;DHT22;2886;49.722;8.612;2022-08-01T09:05:11;30.00;43.30
5723;DHT22;2886;49.722;8.612;2022-08-01T09:07:37;30.20;42.60
5723;DHT22;2886;49.722;8.612;2022-08-01T09:10:04;30.20;42.30
5723;DHT22;2886;49.722;8.612;2022-08-01T09:12:30;30.20;42.60
5723;DHT22;2886;49.722;8.612;2022-08-01T09:14:55;29.70;42.80
5723;DHT22;2886;49.722;8.612;2022-08-01T09:17:22;28.90;44.50
5723;DHT22;2886;49.722;8.612;2022-08-01T09:19:52;28.80;45.10
5723;DHT22;2886;49.722;8.612;2022-08-01T09:22:19;29.00;44.60
5723;DHT22;2886;49.722;8.612;2022-08-01T09:25:08;29.00;44.20
5723;DHT22;2886;49.722;8.612;2022-08-01T09:27:36;28.30;45.80
5723;DHT22;2886;49.722;8.612;2022-08-01T09:30:14;28.00;46.20
5723;DHT22;2886;49.722;8.612;2022-08-01T09:32:57;28.10;46.80
5723;DHT22;2886;49.722;8.612;2022-08-01T09:35:25;28.00;47.40
5723;DHT22;2886;49.722;8.612;2022-08-01T09:37:51;27.70;47.70
5723;DHT22;2886;49.722;8.612;2022-08-01T09:40:17;28.00;47.60
5723;DHT22;2886;49.722;8.612;2022-08-01T09:42:42;28.60;46.20
5723;DHT22;2886;49.722;8.612;2022-08-01T09:45:08;29.20;44.40
5723;DHT22;2886;49.722;8.612;2022-08-01T09:47:38;29.40;43.50
5723;DHT22;2886;49.722;8.612;2022-08-01T09:50:05;29.40;43.70
5723;DHT22;2886;49.722;8.612;2022-08-01T09:52:31;29.10;44.00
5723;DHT22;2886;49.722;8.612;2022-08-01T09:55:02;28.40;45.00
5723;DHT22;2886;49.722;8.612;2022-08-01T09:57:29;28.00;46.30
5723;DHT22;2886;49.722;8.612;2022-08-01T09:59:59;28.10;47.70
5723;DHT22;2886;49.722;8.612;2022-08-01T10:02:36;28.60;45.80
5723;DHT22;2886;49.722;8.612;2022-08-01T10:05:04;29.00;44.60
5723;DHT22;2886;49.722;8.612;2022-08-01T10:07:30;29.50;43.80
5723;DHT22;2886;49.722;8.612;2022-08-01T10:10:09;29.30;43.20
5723;DHT22;2886;49.722;8.612;2022-08-01T10:12:35;29.70;43.10
5723;DHT22;2886;49.722;8.612;2022-08-01T10:15:01;30.20;42.20
5723;DHT22;2886;49.722;8.612;2022-08-01T10:17:27;30.50;41.20
5723;DHT22;2886;49.722;8.612;2022-08-01T10:19:54;30.60;40.70
5723;DHT22;2886;49.722;8.612;2022-08-01T10:22:23;30.20;41.70
5723;DHT22;2886;49.722;8.612;2022-08-01T10:24:54;29.80;42.40
5723;DHT22;2886;49.722;8.612;2022-08-01T10:27:21;29.80;42.00
5723;DHT22;2886;49.722;8.612;2022-08-01T10:29:55;30.20;41.20
5723;DHT22;2886;49.722;8.612;2022-08-01T10:32:22;30.30;41.50
5723;DHT22;2886;49.722;8.612;2022-08-01T10:34:49;30.60;41.00
5723;DHT22;2886;49.722;8.612;2022-08-01T10:37:15;30.70;41.00
5723;DHT22;2886;49.722;8.612;2022-08-01T10:39:43;31.00;40.30
5723;DHT22;2886;49.722;8.612;2022-08-01T10:42:11;31.10;40.10
5723;DHT22;2886;49.722;8.612;2022-08-01T10:44:38;31.00;40.00
5723;DHT22;2886;49.722;8.612;2022-08-01T10:47:12;30.50;40.10
5723;DHT22;2886;49.722;8.612;2022-08-01T10:49:47;30.10;40.80
5723;DHT22;2886;49.722;8.612;2022-08-01T10:52:17;30.00;41.30
5723;DHT22;2886;49.722;8.612;2022-08-01T10:54:42;29.80;41.10
5723;DHT22;2886;49.722;8.612;2022-08-01T10:57:08;29.10;42.50
5723;DHT22;2886;49.722;8.612;2022-08-01T10:59:36;28.60;44.00
5723;DHT22;2886;49.722;8.612;2022-08-01T11:02:29;28.40;44.30
5723;DHT22;2886;49.722;8.612;2022-08-01T11:05:02;28.40;44.50
5723;DHT22;2886;49.722;8.612;2022-08-01T11:07:47;28.40;43.90
5723;DHT22;2886;49.722;8.612;2022-08-01T11:10:24;28.50;44.30
5723;DHT22;2886;49.722;8.612;2022-08-01T11:12:50;28.40;44.40
5723;DHT22;2886;49.722;8.612;2022-08-01T11:15:18;27.60;46.40
5723;DHT22;2886;49.722;8.612;2022-08-01T11:17:51;27.40;47.00
5723;DHT22;2886;49.722;8.612;2022-08-01T11:20:26;27.50;46.90
5723;DHT22;2886;49.722;8.612;2022-08-01T11:25:28;27.40;47.20
5723;DHT22;2886;49.722;8.612;2022-08-01T11:30:50;29.00;43.90
5723;DHT22;2886;49.722;8.612;2022-08-01T11:33:18;30.00;41.40
5723;DHT22;2886;49.722;8.612;2022-08-01T11:38:42;29.80;40.80
5723;DHT22;2886;49.722;8.612;2022-08-01T11:41:13;29.60;40.60
5723;DHT22;2886;49.722;8.612;2022-08-01T11:46:50;29.50;40.60
5723;DHT22;2886;49.722;8.612;2022-08-01T11:49:26;29.10;41.40
5723;DHT22;2886;49.722;8.612;2022-08-01T11:54:29;29.50;40.10
5723;DHT22;2886;49.722;8.612;2022-08-01T11:56:59;29.90;39.20
5723;DHT22;2886;49.722;8.612;2022-08-01T11:59:26;30.30;37.70
5723;DHT22;2886;49.722;8.612;2022-08-01T12:01:52;30.60;37.50
5723;DHT22;2886;49.722;8.612;2022-08-01T12:04:19;30.90;37.00
5723;DHT22;2886;49.722;8.612;2022-08-01T12:06:45;31.10;36.80
5723;DHT22;2886;49.722;8.612;2022-08-01T12:09:21;30.80;38.10
5723;DHT22;2886;49.722;8.612;2022-08-01T12:11:49;30.10;39.80
5723;DHT22;2886;49.722;8.612;2022-08-01T12:14:20;29.60;40.90
5723;DHT22;2886;49.722;8.612;2022-08-01T12:16:52;29.40;41.00
5723;DHT22;2886;49.722;8.612;2022-08-01T12:19:20;29.60;40.80
5723;DHT22;2886;49.722;8.612;2022-08-01T12:22:13;29.60;40.30
5723;DHT22;2886;49.722;8.612;2022-08-01T12:24:41;29.90;39.70
5723;DHT22;2886;49.722;8.612;2022-08-01T12:27:09;30.10;39.40
5723;DHT22;2886;49.722;8.612;2022-08-01T12:29:42;29.50;39.80
5723;DHT22;2886;49.722;8.612;2022-08-01T12:32:26;29.40;40.10
5723;DHT22;2886;49.722;8.612;2022-08-01T12:34:53;29.30;40.70
5723;DHT22;2886;49.722;8.612;2022-08-01T12:37:19;29.60;40.20
5723;DHT22;2886;49.722;8.612;2022-08-01T12:39:46;29.90;39.10
5723;DHT22;2886;49.722;8.612;2022-08-01T12:42:12;30.10;38.90
5723;DHT22;2886;49.722;8.612;2022-08-01T12:44:39;30.20;38.60
5723;DHT22;2886;49.722;8.612;2022-08-01T12:47:06;30.30;38.60
5723;DHT22;2886;49.722;8.612;2022-08-01T12:49:35;30.00;39.40
5723;DHT22;2886;49.722;8.612;2022-08-01T12:52:03;29.30;40.10
5723;DHT22;2886;49.722;8.612;2022-08-01T12:54:29;29.30;40.40
5723;DHT22;2886;49.722;8.612;2022-08-01T12:56:55;29.20;39.90
5723;DHT22;2886;49.722;8.612;2022-08-01T12:59:25;28.70;40.90
5723;DHT22;2886;49.722;8.612;2022-08-01T13:02:07;28.80;40.70
5723;DHT22;2886;49.722;8.612;2022-08-01T13:04:51;29.10;40.40
5723;DHT22;2886;49.722;8.612;2022-08-01T13:07:17;29.70;39.20
5723;DHT22;2886;49.722;8.612;2022-08-01T13:09:50;30.40;37.50
5723;DHT22;2886;49.722;8.612;2022-08-01T13:12:16;30.80;37.00
5723;DHT22;2886;49.722;8.612;2022-08-01T13:14:41;30.90;36.60
5723;DHT22;2886;49.722;8.612;2022-08-01T13:17:07;31.00;36.50
5723;DHT22;2886;49.722;8.612;2022-08-01T13:19:45;31.40;36.00
5723;DHT22;2886;49.722;8.612;2022-08-01T13:22:12;31.70;36.00
5723;DHT22;2886;49.722;8.612;2022-08-01T13:24:38;31.80;35.20
5723;DHT22;2886;49.722;8.612;2022-08-01T13:27:04;31.90;34.90
5723;DHT22;2886;49.722;8.612;2022-08-01T13:31:59;31.30;35.30
5723;DHT22;2886;49.722;8.612;2022-08-01T13:34:32;30.90;36.10
5723;DHT22;2886;49.722;8.612;2022-08-01T13:36:59;30.70;36.80
5723;DHT22;2886;49.722;8.612;2022-08-01T13:39:30;30.80;36.90
5723;DHT22;2886;49.722;8.612;2022-08-01T13:42:12;30.80;36.60
5723;DHT22;2886;49.722;8.612;2022-08-01T13:44:38;30.80;36.70
5723;DHT22;2886;49.722;8.612;2022-08-01T13:47:05;30.90;36.70
5723;DHT22;2886;49.722;8.612;2022-08-01T13:49:31;31.20;36.60
5723;DHT22;2886;49.722;8.612;2022-08-01T13:51:57;31.30;36.50
5723;DHT22;2886;49.722;8.612;2022-08-01T13:54:23;31.40;36.40
5723;DHT22;2886;49.722;8.612;2022-08-01T13:56:50;31.40;36.40
5723;DHT22;2886;49.722;8.612;2022-08-01T13:59:16;31.70;36.10
5723;DHT22;2886;49.722;8.612;2022-08-01T14:01:41;31.90;35.40
5723;DHT22;2886;49.722;8.612;2022-08-01T14:04:07;31.70;35.80
5723;DHT22;2886;49.722;8.612;2022-08-01T14:06:34;31.70;35.90
5723;DHT22;2886;49.722;8.612;2022-08-01T14:09:03;31.30;37.00
5723;DHT22;2886;49.722;8.612;2022-08-01T14:11:29;31.30;36.90
5723;DHT22;2886;49.722;8.612;2022-08-01T14:13:55;31.70;35.80
5723;DHT22;2886;49.722;8.612;2022-08-01T14:16:21;31.80;35.60
5723;DHT22;2886;49.722;8.612;2022-08-01T14:18:47;31.70;36.00
5723;DHT22;2886;49.722;8.612;2022-08-01T14:21:12;31.20;36.50
5723;DHT22;2886;49.722;8.612;2022-08-01T14:23:40;31.00;36.50
5723;DHT22;2886;49.722;8.612;2022-08-01T14:26:06;31.00;36.60
5723;DHT22;2886;49.722;8.612;2022-08-01T14:28:31;31.20;36.30
5723;DHT22;2886;49.722;8.612;2022-08-01T14:30:58;31.00;36.10
5723;DHT22;2886;49.722;8.612;2022-08-01T14:33:24;31.00;36.60
5723;DHT22;2886;49.722;8.612;2022-08-01T14:35:50;30.40;37.00
5723;DHT22;2886;49.722;8.612;2022-08-01T14:38:16;30.00;37.80
5723;DHT22;2886;49.722;8.612;2022-08-01T14:40:42;30.00;38.20
5723;DHT22;2886;49.722;8.612;2022-08-01T14:43:08;30.00;38.20
5723;DHT22;2886;49.722;8.612;2022-08-01T14:45:34;30.30;37.60
5723;DHT22;2886;49.722;8.612;2022-08-01T14:48:00;30.00;38.30
5723;DHT22;2886;49.722;8.612;2022-08-01T14:50:26;30.10;38.70
5723;DHT22;2886;49.722;8.612;2022-08-01T14:52:53;30.30;38.10
5723;DHT22;2886;49.722;8.612;2022-08-01T14:55:19;30.60;37.90
5723;DHT22;2886;49.722;8.612;2022-08-01T14:57:49;30.20;38.60
5723;DHT22;2886;49.722;8.612;2022-08-01T15:00:15;30.00;39.00
5723;DHT22;2886;49.722;8.612;2022-08-01T15:02:42;29.80;39.00
5723;DHT22;2886;49.722;8.612;2022-08-01T15:05:08;30.00;38.60
5723;DHT22;2886;49.722;8.612;2022-08-01T15:07:35;30.30;37.60
5723;DHT22;2886;49.722;8.612;2022-08-01T15:10:01;30.50;37.50
5723;DHT22;2886;49.722;8.612;2022-08-01T15:12:27;30.80;36.40
5723;DHT22;2886;49.722;8.612;2022-08-01T15:14:53;31.00;36.30
5723;DHT22;2886;49.722;8.612;2022-08-01T15:17:37;31.10;36.10
5723;DHT22;2886;49.722;8.612;2022-08-01T15:20:05;31.40;35.90
5723;DHT22;2886;49.722;8.612;2022-08-01T15:22:32;31.30;35.60
5723;DHT22;2886;49.722;8.612;2022-08-01T15:24:59;30.80;36.40
5723;DHT22;2886;49.722;8.612;2022-08-01T15:27:27;30.50;36.80
5723;DHT22;2886;49.722;8.612;2022-08-01T15:29:53;30.40;37.50
5723;DHT22;2886;49.722;8.612;2022-08-01T15:32:20;30.40;37.20
5723;DHT22;2886;49.722;8.612;2022-08-01T15:34:46;30.40;37.00
5723;DHT22;2886;49.722;8.612;2022-08-01T15:37:12;30.50;36.40
5723;DHT22;2886;49.722;8.612;2022-08-01T15:39:38;30.60;35.80
5723;DHT22;2886;49.722;8.612;2022-08-01T15:42:09;30.30;35.40
5723;DHT22;2886;49.722;8.612;2022-08-01T15:44:35;30.10;35.40
5723;DHT22;2886;49.722;8.612;2022-08-01T15:47:02;29.90;36.20
5723;DHT22;2886;49.722;8.612;2022-08-01T15:49:29;30.00;35.80
5723;DHT22;2886;49.722;8.612;2022-08-01T15:51:55;30.10;36.10
5723;DHT22;2886;49.722;8.612;2022-08-01T15:54:21;30.30;35.50
5723;DHT22;2886;49.722;8.612;2022-08-01T15:56:47;30.30;35.60
5723;DHT22;2886;49.722;8.612;2022-08-01T15:59:13;30.00;36.20
5723;DHT22;2886;49.722;8.612;2022-08-01T16:01:39;28.90;41.80
5723;DHT22;2886;49.722;8.612;2022-08-01T16:04:05;28.10;44.80
5723;DHT22;2886;49.722;8.612;2022-08-01T16:06:32;27.70;46.50
5723;DHT22;2886;49.722;8.612;2022-08-01T16:08:58;27.50;47.40
5723;DHT22;2886;49.722;8.612;2022-08-01T16:11:24;27.40;47.80
5723;DHT22;2886;49.722;8.612;2022-08-01T16:13:53;27.30;48.40
5723;DHT22;2886;49.722;8.612;2022-08-01T16:16:20;27.20;49.30
5723;DHT22;2886;49.722;8.612;2022-08-01T16:18:46;27.10;49.40
5723;DHT22;2886;49.722;8.612;2022-08-01T16:21:12;27.20;48.90
5723;DHT22;2886;49.722;8.612;2022-08-01T16:23:39;27.40;47.90
5723;DHT22;2886;49.722;8.612;2022-08-01T16:26:05;27.40;48.20
5723;DHT22;2886;49.722;8.612;2022-08-01T16:28:31;27.30;48.80
5723;DHT22;2886;49.722;8.612;2022-08-01T16:30:56;27.00;49.00
5723;DHT22;2886;49.722;8.612;2022-08-01T16:33:22;26.90;49.10
5723;DHT22;2886;49.722;8.612;2022-08-01T16:35:48;26.90;49.10
5723;DHT22;2886;49.722;8.612;2022-08-01T16:38:14;26.90;50.10
5723;DHT22;2886;49.722;8.612;2022-08-01T16:40:42;26.60;51.30